NORTHEAST SUFFOLK  -  Freeze Watch Freeze Watch        NORTHWEST SUFFOLK  -  Freeze Watch Freeze Watch        SOUTHEAST SUFFOLK  -  Freeze Watch Freeze Watch        SOUTHWEST SUFFOLK  -  Freeze Watch Freeze Watch      

Active alerts

Northwest Suffolk
  Details for Northwest Suffolk Freeze Watch
Southwest Suffolk
  Details for Southwest Suffolk Freeze Watch
Northeast Suffolk
  Details for Northeast Suffolk Freeze Watch
Southeast Suffolk
  Details for Southeast Suffolk Freeze Watch


WXM80 ListenWXM80 Stop

You find our weather info also at:

UK Metoffice

WeatherCloud

Weather Underground

Northeastern Weather Network

AWEKAS

Citizen Weather Observer Program (CWOP)

HAMweather, WeatherForYou, PWS Weather


Weather Underground History page Text

Daily Summary for May 19, 2017 Units:  Both    English   Metric
« Previous Day
Next Day »
Daily Weekly Monthly Yearly Custom
  High: Low: Average:
Temperature: 95.1 °F /  35.1 °C 64.7 °F /  18.2 °C 80.6 °F /  27 °C
Dew Point: 74.7 °F /  23.7 °C 55.2 °F /  12.9 °C 67.3 °F /  19.6 °C
Humidity: 81 % 40 % 65 %
Wind Speed: 8.4 mph /  13.5 km/h - 3.2 mph /  5.1 km/h
Wind Gust: 15.0 mph /  24.1 km/h - -
Wind:- - SW
Pressure: 30.01 in /  1016.1 hPa 29.78 in /  1008.4 hPa -
Precipitation: 0.12 in /  3.05 mm    
Historical Graphs
 
 
Tabular Data for May 19, 2017
Time Temperature Dew Point Pressure Wind Wind Speed Wind Gust Humidity Rainfall Rate (Hourly)
00:02 79.0 °F /  26.1 °C 66.7 °F /  19.3 °C 29.80 in /  1009 hPa SW 4.0 mph /  6.4 km/h 9.0 mph /  14.5 km/h 66 % 0.00 in /  0 mm
00:07 79.0 °F /  26.1 °C 66.7 °F /  19.3 °C 29.80 in /  1009 hPa SSW 4.4 mph /  7.1 km/h 4.4 mph /  7.1 km/h 66 % 0.00 in /  0 mm
00:12 79.0 °F /  26.1 °C 66.7 °F /  19.3 °C 29.80 in /  1009 hPa SW 4.9 mph /  7.9 km/h 11.5 mph /  18.5 km/h 66 % 0.00 in /  0 mm
00:17 79.0 °F /  26.1 °C 66.7 °F /  19.3 °C 29.81 in /  1009.4 hPa WSW 5.4 mph /  8.7 km/h 7.0 mph /  11.3 km/h 66 % 0.00 in /  0 mm
00:22 79.0 °F /  26.1 °C 66.7 °F /  19.3 °C 29.81 in /  1009.4 hPa SSW 5.1 mph /  8.2 km/h 10.4 mph /  16.7 km/h 66 % 0.00 in /  0 mm
00:28 79.0 °F /  26.1 °C 66.7 °F /  19.3 °C 29.81 in /  1009.4 hPa SW 5.6 mph /  9 km/h 8.1 mph /  13 km/h 66 % 0.00 in /  0 mm
00:32 79.0 °F /  26.1 °C 66.7 °F /  19.3 °C 29.81 in /  1009.4 hPa SSW 5.2 mph /  8.4 km/h 11.5 mph /  18.5 km/h 66 % 0.00 in /  0 mm
00:36 79.0 °F /  26.1 °C 66.7 °F /  19.3 °C 29.81 in /  1009.4 hPa WSW 4.7 mph /  7.6 km/h 11.5 mph /  18.5 km/h 66 % 0.00 in /  0 mm
00:41 79.0 °F /  26.1 °C 66.7 °F /  19.3 °C 29.81 in /  1009.4 hPa SSW 1.2 mph /  1.9 km/h 8.1 mph /  13 km/h 66 % 0.00 in /  0 mm
00:46 79.1 °F /  26.2 °C 66.8 °F /  19.3 °C 29.81 in /  1009.4 hPa SW 2.4 mph /  3.9 km/h 5.8 mph /  9.3 km/h 66 % 0.00 in /  0 mm
00:51 79.1 °F /  26.2 °C 66.8 °F /  19.3 °C 29.81 in /  1009.4 hPa West 2.2 mph /  3.5 km/h 6.9 mph /  11.1 km/h 66 % 0.00 in /  0 mm
00:56 79.1 °F /  26.2 °C 66.8 °F /  19.3 °C 29.81 in /  1009.4 hPa West 2.9 mph /  4.7 km/h 8.1 mph /  13 km/h 66 % 0.00 in /  0 mm
01:01 79.1 °F /  26.2 °C 66.8 °F /  19.3 °C 29.81 in /  1009.4 hPa SW 1.8 mph /  2.9 km/h 3.5 mph /  5.6 km/h 66 % 0.00 in /  0 mm
01:06 79.1 °F /  26.2 °C 66.8 °F /  19.3 °C 29.81 in /  1009.4 hPa WSW 3.8 mph /  6.1 km/h 4.6 mph /  7.4 km/h 66 % 0.00 in /  0 mm
01:11 79.1 °F /  26.2 °C 66.8 °F /  19.3 °C 29.81 in /  1009.4 hPa SW 4.8 mph /  7.7 km/h 5.8 mph /  9.3 km/h 66 % 0.00 in /  0 mm
01:16 79.1 °F /  26.2 °C 66.8 °F /  19.3 °C 29.81 in /  1009.4 hPa SSW 5.1 mph /  8.2 km/h 10.4 mph /  16.7 km/h 66 % 0.00 in /  0 mm
01:21 79.1 °F /  26.2 °C 66.8 °F /  19.3 °C 29.81 in /  1009.4 hPa SW 2.4 mph /  3.9 km/h 10.4 mph /  16.7 km/h 66 % 0.00 in /  0 mm
01:26 79.1 °F /  26.2 °C 67.2 °F /  19.6 °C 29.81 in /  1009.4 hPa SSW 3.4 mph /  5.5 km/h 6.9 mph /  11.1 km/h 67 % 0.00 in /  0 mm
01:31 79.0 °F /  26.1 °C 67.1 °F /  19.5 °C 29.80 in /  1009 hPa WSW 3.2 mph /  5.1 km/h 6.9 mph /  11.1 km/h 67 % 0.00 in /  0 mm
01:36 79.0 °F /  26.1 °C 67.1 °F /  19.5 °C 29.80 in /  1009 hPa SW 4.1 mph /  6.6 km/h 5.8 mph /  9.3 km/h 67 % 0.00 in /  0 mm
01:41 78.9 °F /  26.1 °C 67.0 °F /  19.4 °C 29.80 in /  1009 hPa SW 2.1 mph /  3.4 km/h 3.5 mph /  5.6 km/h 67 % 0.00 in /  0 mm
01:46 78.8 °F /  26 °C 66.9 °F /  19.4 °C 29.80 in /  1009 hPa SSW 2.7 mph /  4.3 km/h 3.5 mph /  5.6 km/h 67 % 0.00 in /  0 mm
01:51 78.8 °F /  26 °C 66.9 °F /  19.4 °C 29.80 in /  1009 hPa WSW 1.0 mph /  1.6 km/h 3.5 mph /  5.6 km/h 67 % 0.00 in /  0 mm
01:56 78.6 °F /  25.9 °C 67.2 °F /  19.6 °C 29.80 in /  1009 hPa SW 2.4 mph /  3.9 km/h 3.5 mph /  5.6 km/h 68 % 0.00 in /  0 mm
02:01 78.5 °F /  25.8 °C 67.1 °F /  19.5 °C 29.80 in /  1009 hPa SW 5.2 mph /  8.4 km/h 8.0 mph /  12.9 km/h 68 % 0.00 in /  0 mm
02:06 78.5 °F /  25.8 °C 67.1 °F /  19.5 °C 29.80 in /  1009 hPa West 3.6 mph /  5.8 km/h 8.1 mph /  13 km/h 68 % 0.00 in /  0 mm
02:11 78.4 °F /  25.8 °C 67.0 °F /  19.4 °C 29.80 in /  1009 hPa WSW 5.0 mph /  8 km/h 7.0 mph /  11.3 km/h 68 % 0.00 in /  0 mm
02:16 78.4 °F /  25.8 °C 67.0 °F /  19.4 °C 29.80 in /  1009 hPa WSW 3.9 mph /  6.3 km/h 10.4 mph /  16.7 km/h 68 % 0.00 in /  0 mm
02:21 78.3 °F /  25.7 °C 67.3 °F /  19.6 °C 29.80 in /  1009 hPa West 3.7 mph /  6 km/h 8.1 mph /  13 km/h 69 % 0.00 in /  0 mm
02:26 78.2 °F /  25.7 °C 67.2 °F /  19.6 °C 29.79 in /  1008.7 hPa SW 1.6 mph /  2.6 km/h 3.5 mph /  5.6 km/h 69 % 0.00 in /  0 mm
02:31 78.2 °F /  25.7 °C 67.2 °F /  19.6 °C 29.80 in /  1009 hPa South 2.1 mph /  3.4 km/h 6.0 mph /  9.7 km/h 69 % 0.00 in /  0 mm
02:36 78.1 °F /  25.6 °C 67.1 °F /  19.5 °C 29.79 in /  1008.7 hPa South 2.8 mph /  4.5 km/h 3.5 mph /  5.6 km/h 69 % 0.00 in /  0 mm
02:41 78.0 °F /  25.6 °C 67.0 °F /  19.4 °C 29.79 in /  1008.7 hPa SW 3.7 mph /  6 km/h 8.1 mph /  13 km/h 69 % 0.00 in /  0 mm
02:46 77.9 °F /  25.5 °C 67.3 °F /  19.6 °C 29.79 in /  1008.7 hPa SSW 4.9 mph /  7.9 km/h 8.0 mph /  12.9 km/h 70 % 0.00 in /  0 mm
02:51 77.8 °F /  25.4 °C 67.2 °F /  19.6 °C 29.80 in /  1009 hPa WSW 3.4 mph /  5.5 km/h 6.9 mph /  11.1 km/h 70 % 0.00 in /  0 mm
02:56 77.8 °F /  25.4 °C 67.2 °F /  19.6 °C 29.80 in /  1009 hPa SW 2.9 mph /  4.7 km/h 5.0 mph /  8 km/h 70 % 0.00 in /  0 mm
03:01 77.7 °F /  25.4 °C 67.1 °F /  19.5 °C 29.80 in /  1009 hPa WSW 2.0 mph /  3.2 km/h 3.5 mph /  5.6 km/h 70 % 0.00 in /  0 mm
03:11 77.6 °F /  25.3 °C 67.4 °F /  19.7 °C 29.80 in /  1009 hPa SSW 2.0 mph /  3.2 km/h 3.5 mph /  5.6 km/h 71 % 0.00 in /  0 mm
03:16 77.5 °F /  25.3 °C 67.4 °F /  19.7 °C 29.80 in /  1009 hPa SW 3.9 mph /  6.3 km/h 5.0 mph /  8 km/h 71 % 0.00 in /  0 mm
03:17 77.4 °F /  25.2 °C 67.3 °F /  19.6 °C 29.80 in /  1009 hPa SSW 3.9 mph /  6.3 km/h 4.6 mph /  7.4 km/h 71 % 0.00 in /  0 mm
03:22 77.3 °F /  25.2 °C 67.2 °F /  19.6 °C 29.80 in /  1009 hPa SSW 3.1 mph /  5 km/h 4.6 mph /  7.4 km/h 71 % 0.00 in /  0 mm
03:27 77.1 °F /  25.1 °C 67.4 °F /  19.7 °C 29.80 in /  1009 hPa SSW 4.1 mph /  6.6 km/h 5.8 mph /  9.3 km/h 72 % 0.00 in /  0 mm
03:32 77.0 °F /  25 °C 67.3 °F /  19.6 °C 29.81 in /  1009.4 hPa SSW 3.1 mph /  5 km/h 5.8 mph /  9.3 km/h 72 % 0.00 in /  0 mm
03:37 76.9 °F /  24.9 °C 67.2 °F /  19.6 °C 29.81 in /  1009.4 hPa WSW 1.5 mph /  2.4 km/h 6.9 mph /  11.1 km/h 72 % 0.00 in /  0 mm
03:39 76.9 °F /  24.9 °C 67.2 °F /  19.6 °C 29.81 in /  1009.4 hPa SW 3.7 mph /  6 km/h 6.9 mph /  11.1 km/h 72 % 0.00 in /  0 mm
03:44 76.8 °F /  24.9 °C 67.5 °F /  19.7 °C 29.81 in /  1009.4 hPa SSW 2.2 mph /  3.5 km/h 6.9 mph /  11.1 km/h 73 % 0.00 in /  0 mm
03:49 76.7 °F /  24.8 °C 67.4 °F /  19.7 °C 29.81 in /  1009.4 hPa SW 3.9 mph /  6.3 km/h 7.0 mph /  11.3 km/h 73 % 0.00 in /  0 mm
03:54 76.7 °F /  24.8 °C 67.4 °F /  19.7 °C 29.81 in /  1009.4 hPa SW 4.3 mph /  6.9 km/h 6.9 mph /  11.1 km/h 73 % 0.00 in /  0 mm
03:59 76.6 °F /  24.8 °C 67.7 °F /  19.8 °C 29.80 in /  1009 hPa WSW 2.8 mph /  4.5 km/h 3.5 mph /  5.6 km/h 74 % 0.00 in /  0 mm
04:04 76.5 °F /  24.7 °C 67.6 °F /  19.8 °C 29.80 in /  1009 hPa SSW 6.2 mph /  10 km/h 6.9 mph /  11.1 km/h 74 % 0.00 in /  0 mm
04:09 76.4 °F /  24.7 °C 67.9 °F /  19.9 °C 29.80 in /  1009 hPa SW 4.3 mph /  6.9 km/h 8.1 mph /  13 km/h 75 % 0.00 in /  0 mm
04:14 76.3 °F /  24.6 °C 67.8 °F /  19.9 °C 29.80 in /  1009 hPa SW 2.6 mph /  4.2 km/h 9.2 mph /  14.8 km/h 75 % 0.00 in /  0 mm
04:19 76.2 °F /  24.6 °C 67.7 °F /  19.8 °C 29.80 in /  1009 hPa SW 3.4 mph /  5.5 km/h 9.2 mph /  14.8 km/h 75 % 0.00 in /  0 mm
04:24 76.1 °F /  24.5 °C 67.6 °F /  19.8 °C 29.80 in /  1009 hPa SSW 2.3 mph /  3.7 km/h 4.6 mph /  7.4 km/h 75 % 0.00 in /  0 mm
04:29 76.1 °F /  24.5 °C 67.6 °F /  19.8 °C 29.80 in /  1009 hPa WSW 2.0 mph /  3.2 km/h 3.5 mph /  5.6 km/h 75 % 0.00 in /  0 mm
04:34 76.0 °F /  24.4 °C 67.5 °F /  19.7 °C 29.80 in /  1009 hPa WSW 1.5 mph /  2.4 km/h 6.0 mph /  9.7 km/h 75 % 0.00 in /  0 mm
04:39 76.0 °F /  24.4 °C 67.5 °F /  19.7 °C 29.80 in /  1009 hPa West 1.7 mph /  2.7 km/h 5.0 mph /  8 km/h 75 % 0.00 in /  0 mm
04:44 75.9 °F /  24.4 °C 67.8 °F /  19.9 °C 29.81 in /  1009.4 hPa SW 3.1 mph /  5 km/h 5.8 mph /  9.3 km/h 76 % 0.00 in /  0 mm
04:49 75.7 °F /  24.3 °C 68.0 °F /  20 °C 29.81 in /  1009.4 hPa West 5.5 mph /  8.9 km/h 11.5 mph /  18.5 km/h 77 % 0.00 in /  0 mm
04:54 75.6 °F /  24.2 °C 67.9 °F /  19.9 °C 29.81 in /  1009.4 hPa SW 3.1 mph /  5 km/h 6.0 mph /  9.7 km/h 77 % 0.00 in /  0 mm
04:59 75.5 °F /  24.2 °C 67.8 °F /  19.9 °C 29.81 in /  1009.4 hPa SW 3.4 mph /  5.5 km/h 4.6 mph /  7.4 km/h 77 % 0.00 in /  0 mm
05:04 75.3 °F /  24.1 °C 67.6 °F /  19.8 °C 29.81 in /  1009.4 hPa WSW 3.1 mph /  5 km/h 5.8 mph /  9.3 km/h 77 % 0.00 in /  0 mm
05:09 75.2 °F /  24 °C 67.5 °F /  19.7 °C 29.81 in /  1009.4 hPa WSW 2.0 mph /  3.2 km/h 3.5 mph /  5.6 km/h 77 % 0.00 in /  0 mm
05:14 75.1 °F /  23.9 °C 67.8 °F /  19.9 °C 29.80 in /  1009 hPa SSW 3.9 mph /  6.3 km/h 5.8 mph /  9.3 km/h 78 % 0.00 in /  0 mm
05:19 75.0 °F /  23.9 °C 67.7 °F /  19.8 °C 29.81 in /  1009.4 hPa WSW 3.4 mph /  5.5 km/h 5.0 mph /  8 km/h 78 % 0.00 in /  0 mm
05:21 74.9 °F /  23.8 °C 67.6 °F /  19.8 °C 29.81 in /  1009.4 hPa SW 3.3 mph /  5.3 km/h 5.8 mph /  9.3 km/h 78 % 0.00 in /  0 mm
05:26 74.7 °F /  23.7 °C 67.4 °F /  19.7 °C 29.81 in /  1009.4 hPa SW 1.6 mph /  2.6 km/h 3.5 mph /  5.6 km/h 78 % 0.00 in /  0 mm
05:32 74.6 °F /  23.7 °C 67.7 °F /  19.8 °C 29.81 in /  1009.4 hPa SSW 4.1 mph /  6.6 km/h 6.0 mph /  9.7 km/h 79 % 0.00 in /  0 mm
05:37 74.4 °F /  23.6 °C 67.5 °F /  19.7 °C 29.81 in /  1009.4 hPa SSW 3.3 mph /  5.3 km/h 3.5 mph /  5.6 km/h 79 % 0.00 in /  0 mm
05:42 74.3 °F /  23.5 °C 67.7 °F /  19.8 °C 29.81 in /  1009.4 hPa SW 0.8 mph /  1.3 km/h 6.9 mph /  11.1 km/h 80 % 0.00 in /  0 mm
05:47 74.2 °F /  23.4 °C 67.6 °F /  19.8 °C 29.81 in /  1009.4 hPa SSW 2.9 mph /  4.7 km/h 5.8 mph /  9.3 km/h 80 % 0.00 in /  0 mm
05:52 74.0 °F /  23.3 °C 67.4 °F /  19.7 °C 29.82 in /  1009.7 hPa SSW 5.2 mph /  8.4 km/h 8.1 mph /  13 km/h 80 % 0.00 in /  0 mm
05:57 74.0 °F /  23.3 °C 67.8 °F /  19.9 °C 29.81 in /  1009.4 hPa WSW 1.7 mph /  2.7 km/h 8.0 mph /  12.9 km/h 81 % 0.00 in /  0 mm
06:02 73.9 °F /  23.3 °C 67.7 °F /  19.8 °C 29.82 in /  1009.7 hPa SW 3.9 mph /  6.3 km/h 8.1 mph /  13 km/h 81 % 0.00 in /  0 mm
06:07 73.9 °F /  23.3 °C 67.7 °F /  19.8 °C 29.82 in /  1009.7 hPa SW 2.9 mph /  4.7 km/h 4.6 mph /  7.4 km/h 81 % 0.00 in /  0 mm
06:12 73.9 °F /  23.3 °C 67.7 °F /  19.8 °C 29.82 in /  1009.7 hPa WSW 4.0 mph /  6.4 km/h 4.6 mph /  7.4 km/h 81 % 0.00 in /  0 mm
06:14 73.9 °F /  23.3 °C 67.7 °F /  19.8 °C 29.82 in /  1009.7 hPa WSW 4.2 mph /  6.8 km/h 6.9 mph /  11.1 km/h 81 % 0.00 in /  0 mm
06:19 74.0 °F /  23.3 °C 67.8 °F /  19.9 °C 29.82 in /  1009.7 hPa WSW 4.3 mph /  6.9 km/h 6.0 mph /  9.7 km/h 81 % 0.00 in /  0 mm
06:24 74.0 °F /  23.3 °C 67.8 °F /  19.9 °C 29.83 in /  1010 hPa WSW 1.4 mph /  2.3 km/h 5.8 mph /  9.3 km/h 81 % 0.00 in /  0 mm
06:29 74.2 °F /  23.4 °C 68.0 °F /  20 °C 29.83 in /  1010 hPa WSW 2.8 mph /  4.5 km/h 4.0 mph /  6.4 km/h 81 % 0.00 in /  0 mm
06:34 74.3 °F /  23.5 °C 67.7 °F /  19.8 °C 29.83 in /  1010 hPa WSW 3.6 mph /  5.8 km/h 4.6 mph /  7.4 km/h 80 % 0.00 in /  0 mm
06:39 74.5 °F /  23.6 °C 67.9 °F /  19.9 °C 29.83 in /  1010 hPa SW 2.5 mph /  4 km/h 8.1 mph /  13 km/h 80 % 0.00 in /  0 mm
06:44 74.8 °F /  23.8 °C 68.2 °F /  20.1 °C 29.83 in /  1010 hPa SW 2.6 mph /  4.2 km/h 4.6 mph /  7.4 km/h 80 % 0.00 in /  0 mm
06:49 75.1 °F /  23.9 °C 68.1 °F /  20.1 °C 29.83 in /  1010 hPa SW 5.5 mph /  8.9 km/h 8.0 mph /  12.9 km/h 79 % 0.00 in /  0 mm
06:54 75.4 °F /  24.1 °C 68.1 °F /  20.1 °C 29.83 in /  1010 hPa SSW 4.4 mph /  7.1 km/h 9.2 mph /  14.8 km/h 78 % 0.00 in /  0 mm
06:59 75.8 °F /  24.3 °C 68.1 °F /  20.1 °C 29.83 in /  1010 hPa WSW 4.6 mph /  7.4 km/h 9.2 mph /  14.8 km/h 77 % 0.00 in /  0 mm
07:04 76.2 °F /  24.6 °C 68.8 °F /  20.4 °C 29.83 in /  1010 hPa WSW 3.9 mph /  6.3 km/h 5.0 mph /  8 km/h 78 % 0.00 in /  0 mm
07:09 76.6 °F /  24.8 °C 68.5 °F /  20.3 °C 29.83 in /  1010 hPa SSW 4.9 mph /  7.9 km/h 8.1 mph /  13 km/h 76 % 0.00 in /  0 mm
07:14 77.1 °F /  25.1 °C 68.9 °F /  20.5 °C 29.83 in /  1010 hPa WSW 3.7 mph /  6 km/h 6.0 mph /  9.7 km/h 76 % 0.00 in /  0 mm
07:19 77.4 °F /  25.2 °C 68.9 °F /  20.5 °C 29.83 in /  1010 hPa West 5.0 mph /  8 km/h 5.8 mph /  9.3 km/h 75 % 0.00 in /  0 mm
07:25 77.8 °F /  25.4 °C 68.4 °F /  20.2 °C 29.83 in /  1010 hPa SW 4.2 mph /  6.8 km/h 9.2 mph /  14.8 km/h 73 % 0.00 in /  0 mm
07:29 78.2 °F /  25.7 °C 68.4 °F /  20.2 °C 29.83 in /  1010 hPa West 4.6 mph /  7.4 km/h 8.1 mph /  13 km/h 72 % 0.00 in /  0 mm
07:30 78.3 °F /  25.7 °C 68.5 °F /  20.3 °C 29.83 in /  1010 hPa WSW 4.1 mph /  6.6 km/h 8.1 mph /  13 km/h 72 % 0.00 in /  0 mm
07:35 78.6 °F /  25.9 °C 68.4 °F /  20.2 °C 29.83 in /  1010 hPa West 3.6 mph /  5.8 km/h 8.1 mph /  13 km/h 71 % 0.00 in /  0 mm
07:40 78.8 °F /  26 °C 68.6 °F /  20.3 °C 29.83 in /  1010 hPa WSW 4.3 mph /  6.9 km/h 8.1 mph /  13 km/h 71 % 0.00 in /  0 mm
07:45 79.0 °F /  26.1 °C 68.4 °F /  20.2 °C 29.83 in /  1010 hPa SW 5.0 mph /  8 km/h 11.5 mph /  18.5 km/h 70 % 0.00 in /  0 mm
07:50 79.2 °F /  26.2 °C 68.6 °F /  20.3 °C 29.83 in /  1010 hPa SW 4.1 mph /  6.6 km/h 11.5 mph /  18.5 km/h 70 % 0.00 in /  0 mm
07:55 79.3 °F /  26.3 °C 68.7 °F /  20.4 °C 29.83 in /  1010 hPa WSW 3.7 mph /  6 km/h 11.5 mph /  18.5 km/h 70 % 0.00 in /  0 mm
08:01 79.4 °F /  26.3 °C 68.8 °F /  20.4 °C 29.84 in /  1010.4 hPa WSW 4.0 mph /  6.4 km/h 8.1 mph /  13 km/h 70 % 0.00 in /  0 mm
08:06 79.6 °F /  26.4 °C 68.9 °F /  20.5 °C 29.83 in /  1010 hPa WSW 7.0 mph /  11.3 km/h 13.0 mph /  20.9 km/h 70 % 0.00 in /  0 mm
08:11 79.7 °F /  26.5 °C 69.0 °F /  20.6 °C 29.84 in /  1010.4 hPa WSW 5.0 mph /  8 km/h 9.0 mph /  14.5 km/h 70 % 0.00 in /  0 mm
08:16 79.8 °F /  26.6 °C 69.1 °F /  20.6 °C 29.84 in /  1010.4 hPa WSW 5.0 mph /  8 km/h 12.0 mph /  19.3 km/h 70 % 0.00 in /  0 mm
08:21 80.0 °F /  26.7 °C 69.3 °F /  20.7 °C 29.84 in /  1010.4 hPa WSW 2.0 mph /  3.2 km/h 9.0 mph /  14.5 km/h 70 % 0.00 in /  0 mm
08:26 80.2 °F /  26.8 °C 69.1 °F /  20.6 °C 29.84 in /  1010.4 hPa West 3.0 mph /  4.8 km/h 8.0 mph /  12.9 km/h 69 % 0.00 in /  0 mm
08:31 80.3 °F /  26.8 °C 69.2 °F /  20.7 °C 29.85 in /  1010.7 hPa West 3.0 mph /  4.8 km/h 12.0 mph /  19.3 km/h 69 % 0.00 in /  0 mm
08:36 80.5 °F /  26.9 °C 69.4 °F /  20.8 °C 29.85 in /  1010.7 hPa West 3.0 mph /  4.8 km/h 9.0 mph /  14.5 km/h 69 % 0.00 in /  0 mm
08:41 80.6 °F /  27 °C 69.1 °F /  20.6 °C 29.85 in /  1010.7 hPa WSW 6.0 mph /  9.7 km/h 12.0 mph /  19.3 km/h 68 % 0.00 in /  0 mm
08:46 80.8 °F /  27.1 °C 69.2 °F /  20.7 °C 29.85 in /  1010.7 hPa WSW 5.0 mph /  8 km/h 9.0 mph /  14.5 km/h 68 % 0.00 in /  0 mm
08:51 81.0 °F /  27.2 °C 69.0 °F /  20.6 °C 29.85 in /  1010.7 hPa WSW 5.0 mph /  8 km/h 9.0 mph /  14.5 km/h 67 % 0.00 in /  0 mm
08:56 81.2 °F /  27.3 °C 69.2 °F /  20.7 °C 29.85 in /  1010.7 hPa WSW 5.0 mph /  8 km/h 9.0 mph /  14.5 km/h 67 % 0.00 in /  0 mm
09:01 81.4 °F /  27.4 °C 68.9 °F /  20.5 °C 29.85 in /  1010.7 hPa SSW 3.9 mph /  6.3 km/h 8.1 mph /  13 km/h 66 % 0.00 in /  0 mm
09:06 81.6 °F /  27.6 °C 69.1 °F /  20.6 °C 29.85 in /  1010.7 hPa WSW 5.0 mph /  8 km/h 13.0 mph /  20.9 km/h 66 % 0.00 in /  0 mm
09:11 81.8 °F /  27.7 °C 69.3 °F /  20.7 °C 29.85 in /  1010.7 hPa WSW 5.0 mph /  8 km/h 12.0 mph /  19.3 km/h 66 % 0.00 in /  0 mm
09:16 82.0 °F /  27.8 °C 69.1 °F /  20.6 °C 29.84 in /  1010.4 hPa WSW 3.0 mph /  4.8 km/h 9.0 mph /  14.5 km/h 65 % 0.00 in /  0 mm
09:21 82.1 °F /  27.8 °C 68.7 °F /  20.4 °C 29.84 in /  1010.4 hPa WSW 6.0 mph /  9.7 km/h 12.0 mph /  19.3 km/h 64 % 0.00 in /  0 mm
09:26 82.4 °F /  28 °C 69.0 °F /  20.6 °C 29.84 in /  1010.4 hPa WSW 4.3 mph /  6.9 km/h 9.2 mph /  14.8 km/h 64 % 0.00 in /  0 mm
09:31 82.7 °F /  28.2 °C 69.3 °F /  20.7 °C 29.84 in /  1010.4 hPa WSW 5.0 mph /  8 km/h 8.0 mph /  12.9 km/h 64 % 0.00 in /  0 mm
09:36 83.1 °F /  28.4 °C 69.6 °F /  20.9 °C 29.84 in /  1010.4 hPa WSW 2.0 mph /  3.2 km/h 8.0 mph /  12.9 km/h 64 % 0.00 in /  0 mm
09:41 83.5 °F /  28.6 °C 69.1 °F /  20.6 °C 29.84 in /  1010.4 hPa WSW 2.0 mph /  3.2 km/h 9.0 mph /  14.5 km/h 62 % 0.00 in /  0 mm
09:46 84.0 °F /  28.9 °C 69.1 °F /  20.6 °C 29.83 in /  1010 hPa WSW 5.0 mph /  8 km/h 12.0 mph /  19.3 km/h 61 % 0.00 in /  0 mm
09:51 84.5 °F /  29.2 °C 69.1 °F /  20.6 °C 29.83 in /  1010 hPa WSW 6.0 mph /  9.7 km/h 9.0 mph /  14.5 km/h 60 % 0.00 in /  0 mm
09:56 85.1 °F /  29.5 °C 70.1 °F /  21.2 °C 29.83 in /  1010 hPa WSW 3.0 mph /  4.8 km/h 9.0 mph /  14.5 km/h 61 % 0.00 in /  0 mm
10:01 85.6 °F /  29.8 °C 69.1 °F /  20.6 °C 29.83 in /  1010 hPa WNW 3.0 mph /  4.8 km/h 10.4 mph /  16.7 km/h 58 % 0.00 in /  0 mm
10:06 86.1 °F /  30.1 °C 70.1 °F /  21.2 °C 29.83 in /  1010 hPa WSW 1.1 mph /  1.8 km/h 2.3 mph /  3.7 km/h 59 % 0.00 in /  0 mm
10:11 86.8 °F /  30.4 °C 71.2 °F /  21.8 °C 29.83 in /  1010 hPa SW 4.3 mph /  6.9 km/h 5.8 mph /  9.3 km/h 60 % 0.00 in /  0 mm
10:16 87.3 °F /  30.7 °C 69.2 °F /  20.7 °C 29.83 in /  1010 hPa WSW 3.3 mph /  5.3 km/h 5.8 mph /  9.3 km/h 55 % 0.00 in /  0 mm
10:21 87.8 °F /  31 °C 70.7 °F /  21.5 °C 29.82 in /  1009.7 hPa WSW 2.2 mph /  3.5 km/h 5.8 mph /  9.3 km/h 57 % 0.00 in /  0 mm
10:26 88.3 °F /  31.3 °C 70.6 °F /  21.4 °C 29.83 in /  1010 hPa NW 2.6 mph /  4.2 km/h 4.6 mph /  7.4 km/h 56 % 0.00 in /  0 mm
10:31 88.7 °F /  31.5 °C 69.9 °F /  21.1 °C 29.83 in /  1010 hPa WNW 5.7 mph /  9.2 km/h 10.4 mph /  16.7 km/h 54 % 0.00 in /  0 mm
10:36 89.1 °F /  31.7 °C 70.3 °F /  21.3 °C 29.83 in /  1010 hPa West 5.6 mph /  9 km/h 8.1 mph /  13 km/h 54 % 0.00 in /  0 mm
10:41 89.4 °F /  31.9 °C 69.5 °F /  20.8 °C 29.83 in /  1010 hPa West 2.7 mph /  4.3 km/h 5.8 mph /  9.3 km/h 52 % 0.00 in /  0 mm
10:46 89.6 °F /  32 °C 69.6 °F /  20.9 °C 29.83 in /  1010 hPa SW 3.7 mph /  6 km/h 5.8 mph /  9.3 km/h 52 % 0.00 in /  0 mm
10:51 89.9 °F /  32.2 °C 69.9 °F /  21.1 °C 29.83 in /  1010 hPa West 8.4 mph /  13.5 km/h 11.5 mph /  18.5 km/h 52 % 0.00 in /  0 mm
10:56 90.0 °F /  32.2 °C 68.9 °F /  20.5 °C 29.83 in /  1010 hPa SW 4.2 mph /  6.8 km/h 11.5 mph /  18.5 km/h 50 % 0.00 in /  0 mm
11:01 90.1 °F /  32.3 °C 69.5 °F /  20.8 °C 29.83 in /  1010 hPa SW 2.4 mph /  3.9 km/h 6.0 mph /  9.7 km/h 51 % 0.00 in /  0 mm
11:06 90.3 °F /  32.4 °C 70.3 °F /  21.3 °C 29.83 in /  1010 hPa WSW 4.9 mph /  7.9 km/h 6.9 mph /  11.1 km/h 52 % 0.00 in /  0 mm
11:11 90.7 °F /  32.6 °C 69.5 °F /  20.8 °C 29.83 in /  1010 hPa WSW 3.5 mph /  5.6 km/h 8.0 mph /  12.9 km/h 50 % 0.00 in /  0 mm
11:14 90.8 °F /  32.7 °C 69.6 °F /  20.9 °C 29.83 in /  1010 hPa WNW 2.8 mph /  4.5 km/h 7.0 mph /  11.3 km/h 50 % 0.00 in /  0 mm
11:19 91.0 °F /  32.8 °C 69.8 °F /  21 °C 29.83 in /  1010 hPa West 3.3 mph /  5.3 km/h 8.1 mph /  13 km/h 50 % 0.00 in /  0 mm
11:24 91.2 °F /  32.9 °C 69.4 °F /  20.8 °C 29.83 in /  1010 hPa West 2.0 mph /  3.2 km/h 5.8 mph /  9.3 km/h 49 % 0.00 in /  0 mm
11:29 91.4 °F /  33 °C 69.0 °F /  20.6 °C 29.83 in /  1010 hPa SW 3.4 mph /  5.5 km/h 9.2 mph /  14.8 km/h 48 % 0.00 in /  0 mm
11:34 91.5 °F /  33.1 °C 69.6 °F /  20.9 °C 29.83 in /  1010 hPa WSW 2.3 mph /  3.7 km/h 10.4 mph /  16.7 km/h 49 % 0.00 in /  0 mm
11:39 91.7 °F /  33.2 °C 69.2 °F /  20.7 °C 29.83 in /  1010 hPa SW 3.5 mph /  5.6 km/h 11.5 mph /  18.5 km/h 48 % 0.00 in /  0 mm
11:44 91.8 °F /  33.2 °C 69.3 °F /  20.7 °C 29.83 in /  1010 hPa WNW 4.0 mph /  6.4 km/h 5.8 mph /  9.3 km/h 48 % 0.00 in /  0 mm
11:49 92.0 °F /  33.3 °C 70.1 °F /  21.2 °C 29.83 in /  1010 hPa West 2.8 mph /  4.5 km/h 5.8 mph /  9.3 km/h 49 % 0.00 in /  0 mm
11:54 92.0 °F /  33.3 °C 69.5 °F /  20.8 °C 29.83 in /  1010 hPa WSW 3.7 mph /  6 km/h 8.1 mph /  13 km/h 48 % 0.00 in /  0 mm
11:59 92.2 °F /  33.4 °C 69.7 °F /  20.9 °C 29.83 in /  1010 hPa SW 3.9 mph /  6.3 km/h 6.9 mph /  11.1 km/h 48 % 0.00 in /  0 mm
12:04 92.4 °F /  33.6 °C 69.9 °F /  21.1 °C 29.82 in /  1009.7 hPa SW 5.3 mph /  8.5 km/h 9.2 mph /  14.8 km/h 48 % 0.00 in /  0 mm
12:09 92.6 °F /  33.7 °C 70.0 °F /  21.1 °C 29.82 in /  1009.7 hPa WSW 4.7 mph /  7.6 km/h 8.1 mph /  13 km/h 48 % 0.00 in /  0 mm
12:19 92.8 °F /  33.8 °C 71.4 °F /  21.9 °C 29.82 in /  1009.7 hPa SSW 2.7 mph /  4.3 km/h 5.0 mph /  8 km/h 50 % 0.00 in /  0 mm
12:24 92.8 °F /  33.8 °C 69.0 °F /  20.6 °C 29.82 in /  1009.7 hPa WSW 7.0 mph /  11.3 km/h 11.5 mph /  18.5 km/h 46 % 0.00 in /  0 mm
12:29 92.8 °F /  33.8 °C 69.6 °F /  20.9 °C 29.82 in /  1009.7 hPa West 5.8 mph /  9.3 km/h 7.0 mph /  11.3 km/h 47 % 0.00 in /  0 mm
12:34 93.0 °F /  33.9 °C 70.4 °F /  21.3 °C 29.81 in /  1009.4 hPa West 3.8 mph /  6.1 km/h 7.0 mph /  11.3 km/h 48 % 0.00 in /  0 mm
12:40 93.1 °F /  33.9 °C 68.0 °F /  20 °C 29.81 in /  1009.4 hPa West 4.0 mph /  6.4 km/h 8.1 mph /  13 km/h 44 % 0.00 in /  0 mm
12:45 93.2 °F /  34 °C 70.0 °F /  21.1 °C 29.81 in /  1009.4 hPa SSW 3.1 mph /  5 km/h 8.1 mph /  13 km/h 47 % 0.00 in /  0 mm
12:50 93.3 °F /  34.1 °C 70.1 °F /  21.2 °C 29.81 in /  1009.4 hPa West 3.4 mph /  5.5 km/h 5.8 mph /  9.3 km/h 47 % 0.00 in /  0 mm
12:55 93.5 °F /  34.2 °C 69.0 °F /  20.6 °C 29.81 in /  1009.4 hPa WNW 2.6 mph /  4.2 km/h 5.0 mph /  8 km/h 45 % 0.00 in /  0 mm
13:00 93.7 °F /  34.3 °C 69.2 °F /  20.7 °C 29.81 in /  1009.4 hPa SW 2.4 mph /  3.9 km/h 6.9 mph /  11.1 km/h 45 % 0.00 in /  0 mm
13:05 93.9 °F /  34.4 °C 68.0 °F /  20 °C 29.81 in /  1009.4 hPa SW 8.4 mph /  13.5 km/h 12.7 mph /  20.4 km/h 43 % 0.00 in /  0 mm
13:10 93.9 °F /  34.4 °C 69.3 °F /  20.7 °C 29.81 in /  1009.4 hPa SW 3.6 mph /  5.8 km/h 7.0 mph /  11.3 km/h 45 % 0.00 in /  0 mm
13:15 94.0 °F /  34.4 °C 68.1 °F /  20.1 °C 29.81 in /  1009.4 hPa WSW 4.3 mph /  6.9 km/h 8.1 mph /  13 km/h 43 % 0.00 in /  0 mm
13:20 94.0 °F /  34.4 °C 68.1 °F /  20.1 °C 29.80 in /  1009 hPa West 2.9 mph /  4.7 km/h 6.9 mph /  11.1 km/h 43 % 0.00 in /  0 mm
13:25 94.0 °F /  34.4 °C 67.4 °F /  19.7 °C 29.80 in /  1009 hPa SSW 3.5 mph /  5.6 km/h 9.2 mph /  14.8 km/h 42 % 0.00 in /  0 mm
13:30 94.1 °F /  34.5 °C 69.5 °F /  20.8 °C 29.80 in /  1009 hPa SW 4.4 mph /  7.1 km/h 9.0 mph /  14.5 km/h 45 % 0.00 in /  0 mm
13:35 94.2 °F /  34.6 °C 68.9 °F /  20.5 °C 29.80 in /  1009 hPa WSW 2.6 mph /  4.2 km/h 5.8 mph /  9.3 km/h 44 % 0.00 in /  0 mm
13:40 94.4 °F /  34.7 °C 68.5 °F /  20.3 °C 29.80 in /  1009 hPa West 2.4 mph /  3.9 km/h 3.5 mph /  5.6 km/h 43 % 0.00 in /  0 mm
13:45 94.5 °F /  34.7 °C 67.2 °F /  19.6 °C 29.79 in /  1008.7 hPa SSW 1.5 mph /  2.4 km/h 4.6 mph /  7.4 km/h 41 % 0.00 in /  0 mm
13:50 94.7 °F /  34.8 °C 68.0 °F /  20 °C 29.79 in /  1008.7 hPa SSW 6.2 mph /  10 km/h 11.5 mph /  18.5 km/h 42 % 0.00 in /  0 mm
13:55 94.8 °F /  34.9 °C 71.4 °F /  21.9 °C 29.79 in /  1008.7 hPa WNW 2.0 mph /  3.2 km/h 3.5 mph /  5.6 km/h 47 % 0.00 in /  0 mm
14:00 94.9 °F /  34.9 °C 68.9 °F /  20.5 °C 29.79 in /  1008.7 hPa SW 5.4 mph /  8.7 km/h 10.4 mph /  16.7 km/h 43 % 0.00 in /  0 mm
14:05 95.0 °F /  35 °C 68.3 °F /  20.2 °C 29.79 in /  1008.7 hPa WSW 5.7 mph /  9.2 km/h 12.7 mph /  20.4 km/h 42 % 0.00 in /  0 mm
14:10 94.9 °F /  34.9 °C 68.2 °F /  20.1 °C 29.79 in /  1008.7 hPa SW 4.8 mph /  7.7 km/h 8.1 mph /  13 km/h 42 % 0.00 in /  0 mm
14:15 95.0 °F /  35 °C 67.6 °F /  19.8 °C 29.79 in /  1008.7 hPa WNW 5.9 mph /  9.5 km/h 9.2 mph /  14.8 km/h 41 % 0.00 in /  0 mm
14:21 95.0 °F /  35 °C 66.9 °F /  19.4 °C 29.79 in /  1008.7 hPa WSW 6.0 mph /  9.7 km/h 12.0 mph /  19.3 km/h 40 % 0.00 in /  0 mm
14:26 95.1 °F /  35.1 °C 67.0 °F /  19.4 °C 29.79 in /  1008.7 hPa SW 6.0 mph /  9.7 km/h 9.0 mph /  14.5 km/h 40 % 0.00 in /  0 mm
14:31 95.0 °F /  35 °C 66.9 °F /  19.4 °C 29.79 in /  1008.7 hPa WSW 6.0 mph /  9.7 km/h 9.0 mph /  14.5 km/h 40 % 0.00 in /  0 mm
14:36 94.7 °F /  34.8 °C 68.0 °F /  20 °C 29.79 in /  1008.7 hPa West 2.0 mph /  3.2 km/h 6.0 mph /  9.7 km/h 42 % 0.00 in /  0 mm
14:41 93.8 °F /  34.3 °C 68.6 °F /  20.3 °C 29.79 in /  1008.7 hPa WSW 3.6 mph /  5.8 km/h 8.1 mph /  13 km/h 44 % 0.00 in /  0 mm
14:46 92.8 °F /  33.8 °C 69.0 °F /  20.6 °C 29.79 in /  1008.7 hPa NNW 3.0 mph /  4.8 km/h 9.0 mph /  14.5 km/h 46 % 0.00 in /  0 mm
14:51 91.5 °F /  33.1 °C 67.8 °F /  19.9 °C 29.79 in /  1008.7 hPa NW 1.2 mph /  1.9 km/h 3.5 mph /  5.6 km/h 46 % 0.00 in /  0 mm
14:56 90.5 °F /  32.5 °C 67.5 °F /  19.7 °C 29.79 in /  1008.7 hPa NNW 1.0 mph /  1.6 km/h 8.0 mph /  12.9 km/h 47 % 0.00 in /  0 mm
15:01 90.0 °F /  32.2 °C 67.7 °F /  19.8 °C 29.79 in /  1008.7 hPa WNW 2.8 mph /  4.5 km/h 4.6 mph /  7.4 km/h 48 % 0.00 in /  0 mm
15:06 89.4 °F /  31.9 °C 67.1 °F /  19.5 °C 29.79 in /  1008.7 hPa WNW 2.0 mph /  3.2 km/h 3.5 mph /  5.6 km/h 48 % 0.00 in /  0 mm
15:11 88.9 °F /  31.6 °C 68.4 °F /  20.2 °C 29.79 in /  1008.7 hPa Calm   3.0 mph /  4.8 km/h 51 % 0.00 in /  0 mm
15:16 88.4 °F /  31.3 °C 67.9 °F /  19.9 °C 29.79 in /  1008.7 hPa NW 1.0 mph /  1.6 km/h 4.0 mph /  6.4 km/h 51 % 0.00 in /  0 mm
15:19 88.1 °F /  31.2 °C 68.3 °F /  20.2 °C 29.78 in /  1008.4 hPa WNW 0.4 mph /  0.6 km/h 2.3 mph /  3.7 km/h 52 % 0.00 in /  0 mm
15:24 88.0 °F /  31.1 °C 67.6 °F /  19.8 °C 29.78 in /  1008.4 hPa WNW 1.3 mph /  2.1 km/h 3.5 mph /  5.6 km/h 51 % 0.00 in /  0 mm
15:29 88.1 °F /  31.2 °C 69.9 °F /  21.1 °C 29.78 in /  1008.4 hPa WNW 0.9 mph /  1.4 km/h 3.5 mph /  5.6 km/h 55 % 0.00 in /  0 mm
15:34 88.5 °F /  31.4 °C 69.2 °F /  20.7 °C 29.78 in /  1008.4 hPa NW 1.9 mph /  3.1 km/h 4.0 mph /  6.4 km/h 53 % 0.00 in /  0 mm
15:39 88.9 °F /  31.6 °C 70.1 °F /  21.2 °C 29.78 in /  1008.4 hPa WNW 0.5 mph /  0.8 km/h 2.3 mph /  3.7 km/h 54 % 0.00 in /  0 mm
15:44 89.5 °F /  31.9 °C 70.7 °F /  21.5 °C 29.78 in /  1008.4 hPa North 1.8 mph /  2.9 km/h 3.5 mph /  5.6 km/h 54 % 0.00 in /  0 mm
15:49 90.2 °F /  32.3 °C 67.9 °F /  19.9 °C 29.78 in /  1008.4 hPa WNW 3.7 mph /  6 km/h 4.0 mph /  6.4 km/h 48 % 0.00 in /  0 mm
15:54 90.8 °F /  32.7 °C 69.6 °F /  20.9 °C 29.78 in /  1008.4 hPa NW 0.3 mph /  0.5 km/h 3.5 mph /  5.6 km/h 50 % 0.00 in /  0 mm
15:59 91.4 °F /  33 °C 69.0 °F /  20.6 °C 29.78 in /  1008.4 hPa NW 3.3 mph /  5.3 km/h 4.6 mph /  7.4 km/h 48 % 0.00 in /  0 mm
16:04 91.7 °F /  33.2 °C 69.2 °F /  20.7 °C 29.78 in /  1008.4 hPa NW 1.3 mph /  2.1 km/h 5.0 mph /  8 km/h 48 % 0.00 in /  0 mm
16:09 91.9 °F /  33.3 °C 68.8 °F /  20.4 °C 29.78 in /  1008.4 hPa North 3.4 mph /  5.5 km/h 6.9 mph /  11.1 km/h 47 % 0.00 in /  0 mm
16:14 91.4 °F /  33 °C 68.3 °F /  20.2 °C 29.79 in /  1008.7 hPa NNW 2.3 mph /  3.7 km/h 8.1 mph /  13 km/h 47 % 0.00 in /  0 mm
16:19 90.6 °F /  32.6 °C 67.0 °F /  19.4 °C 29.79 in /  1008.7 hPa NNW 3.8 mph /  6.1 km/h 9.0 mph /  14.5 km/h 46 % 0.00 in /  0 mm
16:24 89.3 °F /  31.8 °C 68.2 °F /  20.1 °C 29.80 in /  1009 hPa NW 2.1 mph /  3.4 km/h 4.6 mph /  7.4 km/h 50 % 0.00 in /  0 mm
16:29 88.4 °F /  31.3 °C 68.0 °F /  20 °C 29.82 in /  1009.7 hPa NW 4.5 mph /  7.2 km/h 6.9 mph /  11.1 km/h 51 % 0.00 in /  0 mm
16:34 86.6 °F /  30.3 °C 71.5 °F /  21.9 °C 29.81 in /  1009.4 hPa WNW 4.8 mph /  7.7 km/h 6.9 mph /  11.1 km/h 61 % 0.12 in /  3.05 mm
16:39 85.0 °F /  29.4 °C 72.4 °F /  22.4 °C 29.81 in /  1009.4 hPa WNW 1.2 mph /  1.9 km/h 6.9 mph /  11.1 km/h 66 % 0.12 in /  3.05 mm
16:45 83.7 °F /  28.7 °C 72.4 °F /  22.4 °C 29.80 in /  1009 hPa WNW 0.1 mph /  0.2 km/h 2.3 mph /  3.7 km/h 69 % 0.12 in /  3.05 mm
16:50 82.9 °F /  28.3 °C 73.4 °F /  23 °C 29.80 in /  1009 hPa WNW 0.4 mph /  0.6 km/h 1.2 mph /  1.9 km/h 73 % 0.12 in /  3.05 mm
16:55 82.4 °F /  28 °C 74.1 °F /  23.4 °C 29.80 in /  1009 hPa WNW 0.7 mph /  1.1 km/h 2.3 mph /  3.7 km/h 76 % 0.12 in /  3.05 mm
17:00 82.0 °F /  27.8 °C 74.5 °F /  23.6 °C 29.79 in /  1008.7 hPa WNW 1.4 mph /  2.3 km/h 3.5 mph /  5.6 km/h 78 % 0.12 in /  3.05 mm
17:05 81.6 °F /  27.6 °C 74.5 °F /  23.6 °C 29.79 in /  1008.7 hPa WSW 1.3 mph /  2.1 km/h 3.5 mph /  5.6 km/h 79 % 0.12 in /  3.05 mm
17:10 81.3 °F /  27.4 °C 73.8 °F /  23.2 °C 29.79 in /  1008.7 hPa Calm   1.2 mph /  1.9 km/h 78 % 0.12 in /  3.05 mm
17:15 81.1 °F /  27.3 °C 74.3 °F /  23.5 °C 29.79 in /  1008.7 hPa Calm   1.2 mph /  1.9 km/h 80 % 0.12 in /  3.05 mm
17:20 81.1 °F /  27.3 °C 74.7 °F /  23.7 °C 29.79 in /  1008.7 hPa Calm   1.2 mph /  1.9 km/h 81 % 0.12 in /  3.05 mm
17:25 80.9 °F /  27.2 °C 74.5 °F /  23.6 °C 29.79 in /  1008.7 hPa Calm   2.3 mph /  3.7 km/h 81 % 0.12 in /  3.05 mm
17:35 80.7 °F /  27.1 °C 74.0 °F /  23.3 °C 29.79 in /  1008.7 hPa Calm   1.2 mph /  1.9 km/h 80 % 0.00 in /  0 mm
17:40 80.7 °F /  27.1 °C 74.0 °F /  23.3 °C 29.79 in /  1008.7 hPa WSW 0.2 mph /  0.3 km/h 1.0 mph /  1.6 km/h 80 % 0.00 in /  0 mm
17:44 80.7 °F /  27.1 °C 74.0 °F /  23.3 °C 29.79 in /  1008.7 hPa WSW 0.2 mph /  0.3 km/h 1.2 mph /  1.9 km/h 80 % 0.00 in /  0 mm
17:49 80.6 °F /  27 °C 73.5 °F /  23.1 °C 29.80 in /  1009 hPa Calm   1.2 mph /  1.9 km/h 79 % 0.00 in /  0 mm
17:54 80.6 °F /  27 °C 73.5 °F /  23.1 °C 29.79 in /  1008.7 hPa Calm     79 % 0.00 in /  0 mm
17:59 80.7 °F /  27.1 °C 74.0 °F /  23.3 °C 29.79 in /  1008.7 hPa Calm     80 % 0.00 in /  0 mm
18:04 80.7 °F /  27.1 °C 73.6 °F /  23.1 °C 29.80 in /  1009 hPa Calm     79 % 0.00 in /  0 mm
18:09 80.8 °F /  27.1 °C 74.0 °F /  23.3 °C 29.79 in /  1008.7 hPa Calm     80 % 0.00 in /  0 mm
18:14 80.8 °F /  27.1 °C 74.0 °F /  23.3 °C 29.79 in /  1008.7 hPa Calm     80 % 0.00 in /  0 mm
18:19 80.9 °F /  27.2 °C 73.8 °F /  23.2 °C 29.80 in /  1009 hPa Calm     79 % 0.00 in /  0 mm
18:24 80.9 °F /  27.2 °C 73.4 °F /  23 °C 29.80 in /  1009 hPa Calm     78 % 0.00 in /  0 mm
18:29 80.9 °F /  27.2 °C 73.4 °F /  23 °C 29.80 in /  1009 hPa WSW 0.5 mph /  0.8 km/h 1.2 mph /  1.9 km/h 78 % 0.00 in /  0 mm
18:34 81.0 °F /  27.2 °C 72.7 °F /  22.6 °C 29.80 in /  1009 hPa Calm     76 % 0.00 in /  0 mm
18:39 81.0 °F /  27.2 °C 72.7 °F /  22.6 °C 29.80 in /  1009 hPa Calm     76 % 0.00 in /  0 mm
18:44 81.1 °F /  27.3 °C 72.4 °F /  22.4 °C 29.80 in /  1009 hPa Calm     75 % 0.00 in /  0 mm
18:50 81.1 °F /  27.3 °C 72.0 °F /  22.2 °C 29.80 in /  1009 hPa Calm     74 % 0.00 in /  0 mm
18:55 81.1 °F /  27.3 °C 72.0 °F /  22.2 °C 29.80 in /  1009 hPa Calm     74 % 0.00 in /  0 mm
19:00 81.1 °F /  27.3 °C 71.6 °F /  22 °C 29.80 in /  1009 hPa Calm     73 % 0.00 in /  0 mm
19:05 81.0 °F /  27.2 °C 71.9 °F /  22.2 °C 29.80 in /  1009 hPa Calm     74 % 0.00 in /  0 mm
19:10 80.9 °F /  27.2 °C 72.2 °F /  22.3 °C 29.81 in /  1009.4 hPa Calm     75 % 0.00 in /  0 mm
19:15 80.8 °F /  27.1 °C 72.1 °F /  22.3 °C 29.81 in /  1009.4 hPa Calm     75 % 0.00 in /  0 mm
19:20 80.6 °F /  27 °C 71.9 °F /  22.2 °C 29.81 in /  1009.4 hPa Calm     75 % 0.00 in /  0 mm
19:25 80.4 °F /  26.9 °C 72.1 °F /  22.3 °C 29.81 in /  1009.4 hPa Calm     76 % 0.00 in /  0 mm
19:30 80.3 °F /  26.8 °C 72.4 °F /  22.4 °C 29.81 in /  1009.4 hPa Calm     77 % 0.00 in /  0 mm
19:35 80.0 °F /  26.7 °C 72.1 °F /  22.3 °C 29.82 in /  1009.7 hPa WSW 0.6 mph /  1 km/h 2.3 mph /  3.7 km/h 77 % 0.00 in /  0 mm
19:40 79.8 °F /  26.6 °C 71.9 °F /  22.2 °C 29.82 in /  1009.7 hPa Calm     77 % 0.00 in /  0 mm
19:45 79.4 °F /  26.3 °C 69.2 °F /  20.7 °C 29.83 in /  1010 hPa West 6.2 mph /  10 km/h 15.0 mph /  24.1 km/h 71 % 0.00 in /  0 mm
19:46 79.3 °F /  26.3 °C 69.1 °F /  20.6 °C 29.83 in /  1010 hPa NW 4.5 mph /  7.2 km/h 6.9 mph /  11.1 km/h 71 % 0.00 in /  0 mm
19:51 78.8 °F /  26 °C 67.3 °F /  19.6 °C 29.85 in /  1010.7 hPa North 3.0 mph /  4.8 km/h 6.9 mph /  11.1 km/h 68 % 0.00 in /  0 mm
19:56 78.5 °F /  25.8 °C 67.1 °F /  19.5 °C 29.85 in /  1010.7 hPa NNE 5.6 mph /  9 km/h 11.0 mph /  17.7 km/h 68 % 0.00 in /  0 mm
20:01 77.4 °F /  25.2 °C 64.3 °F /  17.9 °C 29.84 in /  1010.4 hPa NNE 7.1 mph /  11.4 km/h 11.5 mph /  18.5 km/h 64 % 0.00 in /  0 mm
20:06 76.5 °F /  24.7 °C 64.7 °F /  18.2 °C 29.85 in /  1010.7 hPa NNE 4.7 mph /  7.6 km/h 9.2 mph /  14.8 km/h 67 % 0.00 in /  0 mm
20:11 75.6 °F /  24.2 °C 63.4 °F /  17.4 °C 29.85 in /  1010.7 hPa North 5.4 mph /  8.7 km/h 8.1 mph /  13 km/h 66 % 0.00 in /  0 mm
20:16 74.8 °F /  23.8 °C 63.1 °F /  17.3 °C 29.86 in /  1011.1 hPa ENE 1.5 mph /  2.4 km/h 3.5 mph /  5.6 km/h 67 % 0.00 in /  0 mm
20:21 74.4 °F /  23.6 °C 63.1 °F /  17.3 °C 29.88 in /  1011.7 hPa Calm   1.2 mph /  1.9 km/h 68 % 0.00 in /  0 mm
20:26 74.1 °F /  23.4 °C 62.9 °F /  17.2 °C 29.89 in /  1012.1 hPa NE 0.2 mph /  0.3 km/h   68 % 0.00 in /  0 mm
20:31 73.7 °F /  23.2 °C 62.1 °F /  16.7 °C 29.89 in /  1012.1 hPa ENE 2.2 mph /  3.5 km/h 5.8 mph /  9.3 km/h 67 % 0.00 in /  0 mm
20:36 73.3 °F /  22.9 °C 61.7 °F /  16.5 °C 29.89 in /  1012.1 hPa North 1.0 mph /  1.6 km/h 8.1 mph /  13 km/h 67 % 0.00 in /  0 mm
20:42 72.8 °F /  22.7 °C 61.2 °F /  16.2 °C 29.89 in /  1012.1 hPa North 0.7 mph /  1.1 km/h 4.6 mph /  7.4 km/h 67 % 0.00 in /  0 mm
20:47 72.4 °F /  22.4 °C 60.8 °F /  16 °C 29.90 in /  1012.4 hPa ENE 0.4 mph /  0.6 km/h 4.6 mph /  7.4 km/h 67 % 0.00 in /  0 mm
20:52 72.1 °F /  22.3 °C 61.0 °F /  16.1 °C 29.90 in /  1012.4 hPa NNE 1.6 mph /  2.6 km/h 4.0 mph /  6.4 km/h 68 % 0.00 in /  0 mm
20:57 71.9 °F /  22.2 °C 60.3 °F /  15.7 °C 29.91 in /  1012.8 hPa North 0.3 mph /  0.5 km/h 1.2 mph /  1.9 km/h 67 % 0.00 in /  0 mm
21:02 71.6 °F /  22 °C 60.5 °F /  15.8 °C 29.92 in /  1013.1 hPa North 2.1 mph /  3.4 km/h 4.0 mph /  6.4 km/h 68 % 0.00 in /  0 mm
21:07 71.4 °F /  21.9 °C 59.9 °F /  15.5 °C 29.92 in /  1013.1 hPa North 0.8 mph /  1.3 km/h 2.3 mph /  3.7 km/h 67 % 0.00 in /  0 mm
21:12 71.0 °F /  21.7 °C 59.9 °F /  15.5 °C 29.92 in /  1013.1 hPa NE 1.2 mph /  1.9 km/h 3.5 mph /  5.6 km/h 68 % 0.00 in /  0 mm
21:17 70.7 °F /  21.5 °C 59.2 °F /  15.1 °C 29.93 in /  1013.4 hPa NNE 5.3 mph /  8.5 km/h 10.4 mph /  16.7 km/h 67 % 0.00 in /  0 mm
21:20 70.5 °F /  21.4 °C 59.4 °F /  15.2 °C 29.93 in /  1013.4 hPa North 4.0 mph /  6.4 km/h 6.0 mph /  9.7 km/h 68 % 0.00 in /  0 mm
21:25 70.2 °F /  21.2 °C 59.1 °F /  15.1 °C 29.94 in /  1013.8 hPa NNE 3.5 mph /  5.6 km/h 5.0 mph /  8 km/h 68 % 0.00 in /  0 mm
21:30 69.9 °F /  21.1 °C 58.9 °F /  14.9 °C 29.94 in /  1013.8 hPa North 3.5 mph /  5.6 km/h 5.0 mph /  8 km/h 68 % 0.00 in /  0 mm
21:35 69.7 °F /  20.9 °C 58.3 °F /  14.6 °C 29.94 in /  1013.8 hPa North 3.9 mph /  6.3 km/h 6.9 mph /  11.1 km/h 67 % 0.00 in /  0 mm
21:40 69.6 °F /  20.9 °C 58.6 °F /  14.8 °C 29.94 in /  1013.8 hPa NNE 3.5 mph /  5.6 km/h 4.6 mph /  7.4 km/h 68 % 0.00 in /  0 mm
21:45 69.4 °F /  20.8 °C 58.8 °F /  14.9 °C 29.94 in /  1013.8 hPa NNW 1.8 mph /  2.9 km/h 3.5 mph /  5.6 km/h 69 % 0.00 in /  0 mm
21:50 69.2 °F /  20.7 °C 59.0 °F /  15 °C 29.94 in /  1013.8 hPa North 3.3 mph /  5.3 km/h 4.6 mph /  7.4 km/h 70 % 0.00 in /  0 mm
21:55 69.0 °F /  20.6 °C 59.2 °F /  15.1 °C 29.95 in /  1014.1 hPa North 3.7 mph /  6 km/h 4.6 mph /  7.4 km/h 71 % 0.00 in /  0 mm
22:00 68.8 °F /  20.4 °C 59.0 °F /  15 °C 29.95 in /  1014.1 hPa North 3.4 mph /  5.5 km/h 6.0 mph /  9.7 km/h 71 % 0.00 in /  0 mm
22:05 68.5 °F /  20.3 °C 59.1 °F /  15.1 °C 29.95 in /  1014.1 hPa NNW 5.2 mph /  8.4 km/h 8.1 mph /  13 km/h 72 % 0.00 in /  0 mm
22:10 68.3 °F /  20.2 °C 58.5 °F /  14.7 °C 29.96 in /  1014.4 hPa North 5.1 mph /  8.2 km/h 10.4 mph /  16.7 km/h 71 % 0.00 in /  0 mm
22:15 68.0 °F /  20 °C 57.4 °F /  14.1 °C 29.96 in /  1014.4 hPa NNE 4.3 mph /  6.9 km/h 5.8 mph /  9.3 km/h 69 % 0.00 in /  0 mm
22:20 67.7 °F /  19.8 °C 56.8 °F /  13.8 °C 29.96 in /  1014.4 hPa NNE 4.4 mph /  7.1 km/h 8.1 mph /  13 km/h 68 % 0.00 in /  0 mm
22:25 67.6 °F /  19.8 °C 57.1 °F /  13.9 °C 29.97 in /  1014.8 hPa North 5.1 mph /  8.2 km/h 8.0 mph /  12.9 km/h 69 % 0.00 in /  0 mm
22:30 67.5 °F /  19.7 °C 56.6 °F /  13.7 °C 29.96 in /  1014.4 hPa North 6.0 mph /  9.7 km/h 9.2 mph /  14.8 km/h 68 % 0.00 in /  0 mm
22:36 67.4 °F /  19.7 °C 56.5 °F /  13.6 °C 29.97 in /  1014.8 hPa North 2.8 mph /  4.5 km/h 5.8 mph /  9.3 km/h 68 % 0.00 in /  0 mm
22:41 67.3 °F /  19.6 °C 56.4 °F /  13.6 °C 29.97 in /  1014.8 hPa North 3.0 mph /  4.8 km/h 8.0 mph /  12.9 km/h 68 % 0.00 in /  0 mm
22:46 67.2 °F /  19.6 °C 56.2 °F /  13.4 °C 29.97 in /  1014.8 hPa NNE 3.0 mph /  4.8 km/h 10.0 mph /  16.1 km/h 68 % 0.00 in /  0 mm
22:51 67.0 °F /  19.4 °C 56.5 °F /  13.6 °C 29.97 in /  1014.8 hPa NNE 5.0 mph /  8 km/h 8.0 mph /  12.9 km/h 69 % 0.00 in /  0 mm
22:56 67.0 °F /  19.4 °C 56.4 °F /  13.6 °C 29.98 in /  1015.1 hPa NNE 5.0 mph /  8 km/h 9.0 mph /  14.5 km/h 69 % 0.00 in /  0 mm
23:01 66.8 °F /  19.3 °C 56.3 °F /  13.5 °C 29.98 in /  1015.1 hPa NNE 5.3 mph /  8.5 km/h 7.0 mph /  11.3 km/h 69 % 0.00 in /  0 mm
23:06 66.6 °F /  19.2 °C 55.7 °F /  13.2 °C 29.98 in /  1015.1 hPa NE 4.8 mph /  7.7 km/h 8.1 mph /  13 km/h 68 % 0.00 in /  0 mm
23:11 66.5 °F /  19.2 °C 55.2 °F /  12.9 °C 29.98 in /  1015.1 hPa NE 5.4 mph /  8.7 km/h 9.2 mph /  14.8 km/h 67 % 0.00 in /  0 mm
23:16 66.4 °F /  19.1 °C 55.5 °F /  13.1 °C 29.99 in /  1015.5 hPa North 3.9 mph /  6.3 km/h 9.2 mph /  14.8 km/h 68 % 0.00 in /  0 mm
23:21 66.3 °F /  19.1 °C 55.4 °F /  13 °C 29.99 in /  1015.5 hPa NNE 5.7 mph /  9.2 km/h 8.1 mph /  13 km/h 68 % 0.00 in /  0 mm
23:26 66.1 °F /  18.9 °C 55.6 °F /  13.1 °C 29.99 in /  1015.5 hPa NNW 4.3 mph /  6.9 km/h 8.1 mph /  13 km/h 69 % 0.00 in /  0 mm
23:31 65.9 °F /  18.8 °C 55.8 °F /  13.2 °C 29.99 in /  1015.5 hPa North 6.7 mph /  10.8 km/h 10.4 mph /  16.7 km/h 70 % 0.00 in /  0 mm
23:36 65.7 °F /  18.7 °C 56.0 °F /  13.3 °C 29.99 in /  1015.5 hPa NNE 6.6 mph /  10.6 km/h 10.4 mph /  16.7 km/h 71 % 0.00 in /  0 mm
23:41 65.3 °F /  18.5 °C 55.7 °F /  13.2 °C 30.00 in /  1015.8 hPa NNW 4.3 mph /  6.9 km/h 10.4 mph /  16.7 km/h 71 % 0.00 in /  0 mm
23:46 65.2 °F /  18.4 °C 55.9 °F /  13.3 °C 30.01 in /  1016.1 hPa NNE 5.1 mph /  8.2 km/h 8.1 mph /  13 km/h 72 % 0.00 in /  0 mm
23:51 65.0 °F /  18.3 °C 56.1 °F /  13.4 °C 30.01 in /  1016.1 hPa NE 5.7 mph /  9.2 km/h 9.0 mph /  14.5 km/h 73 % 0.00 in /  0 mm
23:56 64.7 °F /  18.2 °C 55.8 °F /  13.2 °C 30.01 in /  1016.1 hPa North 5.2 mph /  8.4 km/h 8.0 mph /  12.9 km/h 73 % 0.00 in /  0 mm
Crab Meadow Weather
Compliments of Weather Underground - 3 mb

Script developed by  Jim McMurry - jmcmurry@mwt.net Adapted for the template by  Wim van der Kuil - Leuven-Template.eu

Rain: The total amount of precipitation the earth receives each year as snow, hail, and rain is equivalent to 10 million gallons of water for every person in the United States.